createdAt,value
2022-11-25T00:01:06.289Z,4.78
2022-11-25T00:03:32.763Z,4.90
2022-11-25T00:06:07.716Z,3.92
2022-11-25T00:08:34.180Z,3.78
2022-11-25T00:11:01.026Z,4.25
2022-11-25T00:13:27.403Z,3.85
2022-11-25T00:15:53.742Z,4.43
2022-11-25T00:18:20.194Z,4.05
2022-11-25T00:20:46.514Z,4.22
2022-11-25T00:23:12.899Z,3.58
2022-11-25T00:25:39.436Z,3.75
2022-11-25T00:28:05.972Z,3.78
2022-11-25T00:30:32.733Z,4.00
2022-11-25T00:32:59.059Z,3.97
2022-11-25T00:35:26.417Z,4.45
2022-11-25T00:37:52.784Z,4.20
2022-11-25T00:40:19.167Z,3.97
2022-11-25T00:43:04.423Z,4.20
2022-11-25T00:45:30.928Z,4.15
2022-11-25T00:47:57.300Z,3.63
2022-11-25T00:50:23.698Z,4.20
2022-11-25T00:52:50.119Z,4.13
2022-11-25T00:55:16.429Z,5.07
2022-11-25T00:57:43.332Z,4.25
2022-11-25T01:00:11.862Z,3.45
2022-11-25T01:02:40.604Z,4.38
2022-11-25T01:05:07.362Z,3.80
2022-11-25T01:07:34.500Z,4.40
2022-11-25T01:10:00.921Z,3.90
2022-11-25T01:12:27.256Z,4.28
2022-11-25T01:14:53.940Z,4.10
2022-11-25T01:17:20.321Z,4.22
2022-11-25T01:19:47.416Z,3.67
2022-11-25T01:22:13.780Z,4.43
2022-11-25T01:24:42.357Z,4.80
2022-11-25T01:27:08.727Z,5.47
2022-11-25T01:29:35.423Z,5.15
2022-11-25T01:32:01.921Z,4.78
2022-11-25T01:34:28.473Z,3.78
2022-11-25T01:36:56.769Z,4.40
2022-11-25T01:39:28.626Z,4.00
2022-11-25T01:41:58.769Z,3.83
2022-11-25T01:44:28.191Z,3.92
2022-11-25T01:46:57.527Z,4.97
2022-11-25T01:49:45.191Z,4.45
2022-11-25T01:52:11.767Z,3.80
2022-11-25T01:54:40.701Z,3.88
2022-11-25T01:57:10.150Z,4.65
2022-11-25T02:02:05.986Z,4.28
2022-11-25T02:04:34.143Z,3.97
2022-11-25T02:07:09.319Z,3.70
2022-11-25T02:09:37.339Z,4.38
2022-11-25T02:12:04.295Z,5.70
2022-11-25T02:14:30.924Z,4.90
2022-11-25T02:16:59.691Z,4.10
2022-11-25T02:19:32.260Z,4.90
2022-11-25T02:22:01.570Z,4.47
2022-11-25T02:24:43.064Z,4.97
2022-11-25T02:27:09.549Z,5.35
2022-11-25T02:29:36.220Z,5.35
2022-11-25T02:32:05.401Z,4.90
2022-11-25T02:34:31.943Z,5.38
2022-11-25T02:36:59.731Z,4.57
2022-11-25T02:39:26.129Z,4.32
2022-11-25T02:41:54.151Z,4.55
2022-11-25T02:44:20.535Z,4.13
2022-11-25T02:46:47.269Z,4.68
2022-11-25T02:49:13.802Z,4.25
2022-11-25T02:51:43.869Z,4.75
2022-11-25T02:54:11.429Z,4.15
2022-11-25T02:56:38.253Z,4.85
2022-11-25T02:59:04.954Z,4.75
2022-11-25T03:01:31.933Z,4.82
2022-11-25T03:03:58.951Z,5.35
2022-11-25T03:06:27.026Z,4.88
2022-11-25T03:08:54.241Z,5.25
2022-11-25T03:11:20.529Z,4.90
2022-11-25T03:13:47.090Z,5.53
2022-11-25T03:16:14.982Z,5.45
2022-11-25T03:18:44.156Z,4.75
2022-11-25T03:21:10.530Z,5.28
2022-11-25T03:23:36.852Z,6.32
2022-11-25T03:26:07.149Z,4.75
2022-11-25T03:28:34.103Z,5.30
2022-11-25T03:31:00.397Z,5.38
2022-11-25T03:33:26.754Z,5.32
2022-11-25T03:35:53.275Z,5.90
2022-11-25T03:38:20.405Z,6.47
2022-11-25T03:40:47.826Z,5.70
2022-11-25T03:43:14.885Z,5.90
2022-11-25T03:45:41.472Z,5.85
2022-11-25T03:48:08.994Z,6.15
2022-11-25T03:50:36.793Z,6.15
2022-11-25T03:53:03.126Z,5.82
2022-11-25T03:55:29.521Z,5.82
2022-11-25T03:57:56.005Z,5.30
2022-11-25T04:00:23.927Z,5.15
2022-11-25T04:02:57.136Z,5.32
2022-11-25T04:05:23.444Z,6.13
2022-11-25T04:07:53.480Z,5.43
2022-11-25T04:10:22.831Z,5.38
2022-11-25T04:12:49.560Z,4.85
2022-11-25T04:15:23.719Z,4.60
2022-11-25T04:17:52.996Z,4.53
2022-11-25T04:20:19.925Z,4.50
2022-11-25T04:22:52.673Z,3.75
2022-11-25T04:25:20.173Z,3.80
2022-11-25T04:27:46.906Z,4.30
2022-11-25T04:30:15.528Z,3.97
2022-11-25T04:32:43.466Z,3.88
2022-11-25T04:35:10.944Z,4.05
2022-11-25T04:37:39.341Z,3.33
2022-11-25T04:40:06.041Z,3.88
2022-11-25T04:42:34.291Z,3.00
2022-11-25T04:45:22.483Z,2.83
2022-11-25T04:47:51.099Z,3.08
2022-11-25T04:50:19.860Z,2.78
2022-11-25T04:53:02.886Z,3.08
2022-11-25T04:55:30.036Z,2.22
2022-11-25T04:57:58.490Z,2.20
2022-11-25T05:00:25.069Z,2.30
2022-11-25T05:02:53.027Z,2.42
2022-11-25T05:05:20.832Z,2.33
2022-11-25T05:07:47.181Z,2.22
2022-11-25T05:10:14.982Z,2.03
2022-11-25T05:12:45.711Z,2.28
2022-11-25T05:15:16.189Z,2.00
2022-11-25T05:17:45.353Z,2.08
2022-11-25T05:20:13.310Z,2.00
2022-11-25T05:22:39.829Z,1.98
2022-11-25T05:25:10.771Z,2.00
2022-11-25T05:27:44.992Z,2.30
2022-11-25T05:30:13.448Z,2.58
2022-11-25T05:32:40.849Z,1.95
2022-11-25T05:35:09.903Z,2.10
2022-11-25T05:37:38.593Z,2.30
2022-11-25T05:40:06.262Z,2.22
2022-11-25T05:42:32.584Z,2.33
2022-11-25T05:45:02.330Z,2.53
2022-11-25T05:47:30.442Z,2.25
2022-11-25T05:49:57.493Z,2.63
2022-11-25T05:52:23.857Z,2.08
2022-11-25T05:54:57.542Z,2.28
2022-11-25T05:57:24.549Z,2.65
2022-11-25T05:59:55.021Z,2.20
2022-11-25T06:02:41.559Z,2.78
2022-11-25T06:05:11.171Z,2.70
2022-11-25T06:07:37.795Z,2.78
2022-11-25T06:10:04.638Z,2.72
2022-11-25T06:12:34.269Z,2.60
2022-11-25T06:15:00.597Z,2.60
2022-11-25T06:17:27.330Z,2.53
2022-11-25T06:20:09.314Z,2.47
2022-11-25T06:22:35.839Z,3.20
2022-11-25T06:25:04.108Z,2.67
2022-11-25T06:28:04.571Z,3.40
2022-11-25T06:30:22.521Z,2.80
2022-11-25T06:33:02.557Z,2.80
2022-11-25T06:35:28.964Z,3.17
2022-11-25T06:38:01.322Z,3.22
2022-11-25T06:42:55.155Z,3.40
2022-11-25T06:45:21.503Z,3.33
2022-11-25T06:47:47.815Z,3.50
2022-11-25T06:50:14.519Z,3.63
2022-11-25T06:52:40.938Z,3.60
2022-11-25T06:55:08.925Z,3.70
2022-11-25T06:57:35.353Z,4.40
2022-11-25T07:00:01.837Z,3.97
2022-11-25T07:02:28.407Z,4.65
2022-11-25T07:04:54.775Z,3.92
2022-11-25T07:07:21.536Z,4.03
2022-11-25T07:09:48.016Z,4.32
2022-11-25T07:12:14.364Z,4.32
2022-11-25T07:14:41.072Z,4.70
2022-11-25T07:17:11.833Z,5.15
2022-11-25T07:22:05.084Z,4.50
2022-11-25T07:24:31.602Z,5.25
2022-11-25T07:26:58.232Z,5.57
2022-11-25T07:32:11.168Z,5.28
2022-11-25T07:34:37.585Z,5.18
2022-11-25T07:37:03.860Z,5.28
2022-11-25T07:39:30.546Z,5.47
2022-11-25T07:41:57.040Z,5.07
2022-11-25T07:44:23.374Z,4.93
2022-11-25T07:47:00.101Z,5.72
2022-11-25T07:49:26.588Z,5.43
2022-11-25T07:51:54.536Z,5.70
2022-11-25T07:54:21.724Z,5.07
2022-11-25T07:56:49.644Z,5.13
2022-11-25T07:59:17.796Z,5.53
2022-11-25T08:01:44.289Z,5.82
2022-11-25T08:04:16.456Z,6.00
2022-11-25T08:06:46.749Z,5.03
2022-11-25T08:09:14.550Z,4.95
2022-11-25T08:11:41.166Z,5.40
2022-11-25T08:14:08.506Z,5.20
2022-11-25T08:16:34.953Z,5.80
2022-11-25T08:19:03.404Z,5.05
2022-11-25T08:21:30.024Z,4.82
2022-11-25T08:23:56.465Z,5.93
2022-11-25T08:26:27.009Z,5.03
2022-11-25T08:28:53.984Z,5.10
2022-11-25T08:31:21.780Z,5.00
2022-11-25T08:33:50.442Z,5.30
2022-11-25T08:36:17.411Z,5.30
2022-11-25T08:38:44.840Z,4.80
2022-11-25T08:41:22.198Z,4.90
2022-11-25T08:43:48.613Z,5.30
2022-11-25T08:46:17.098Z,5.65
2022-11-25T08:48:43.546Z,4.88
2022-11-25T08:51:12.831Z,5.25
2022-11-25T08:53:39.554Z,4.82
2022-11-25T08:56:06.545Z,5.07
2022-11-25T08:58:33.351Z,5.00
2022-11-25T09:00:59.829Z,4.70
2022-11-25T09:03:26.283Z,5.88
2022-11-25T09:05:53.428Z,4.70
2022-11-25T09:08:20.057Z,5.00
2022-11-25T09:10:46.776Z,4.40
2022-11-25T09:13:13.357Z,5.65
2022-11-25T09:15:39.818Z,4.45
2022-11-25T09:18:08.091Z,4.35
2022-11-25T09:20:34.641Z,4.20
2022-11-25T09:23:01.645Z,4.28
2022-11-25T09:25:28.571Z,4.75
2022-11-25T09:27:55.342Z,4.25
2022-11-25T09:30:22.114Z,4.10
2022-11-25T09:32:49.743Z,4.40
2022-11-25T09:35:16.323Z,3.90
2022-11-25T09:37:42.925Z,4.20
2022-11-25T09:40:20.386Z,4.00
2022-11-25T09:43:13.173Z,3.90
2022-11-25T09:46:14.776Z,3.70
2022-11-25T09:48:47.994Z,3.80
2022-11-25T09:51:20.209Z,3.53
2022-11-25T09:53:58.391Z,3.63
2022-11-25T09:56:40.966Z,3.83
2022-11-25T09:59:12.370Z,4.03
2022-11-25T10:01:45.557Z,3.70
2022-11-25T10:04:15.822Z,3.70
2022-11-25T10:06:54.920Z,3.53
2022-11-25T10:09:24.284Z,3.47
2022-11-25T10:11:52.299Z,3.58
2022-11-25T10:14:29.910Z,3.25
2022-11-25T10:17:15.077Z,3.17
2022-11-25T10:19:58.692Z,3.83
2022-11-25T10:22:27.126Z,2.95
2022-11-25T10:24:56.475Z,3.38
2022-11-25T10:27:49.434Z,2.83
2022-11-25T10:30:19.015Z,2.78
2022-11-25T10:32:49.264Z,3.28
2022-11-25T10:35:19.496Z,3.00
2022-11-25T10:37:47.880Z,3.00
2022-11-25T10:40:18.048Z,2.53
2022-11-25T10:42:44.521Z,2.97
2022-11-25T10:45:11.912Z,3.75
2022-11-25T10:47:57.089Z,3.45
2022-11-25T10:50:42.838Z,3.05
2022-11-25T10:53:14.031Z,3.03
2022-11-25T10:55:55.710Z,3.45
2022-11-25T10:58:27.054Z,3.65
2022-11-25T11:01:22.976Z,3.38
2022-11-25T11:03:53.873Z,3.72
2022-11-25T11:06:36.485Z,3.20
2022-11-25T11:09:03.518Z,3.55
2022-11-25T11:11:30.481Z,3.30
2022-11-25T11:14:13.776Z,3.55
2022-11-25T11:16:41.887Z,4.40
2022-11-25T11:19:20.456Z,3.58
2022-11-25T11:21:46.754Z,3.65
2022-11-25T11:24:24.961Z,3.60
2022-11-25T11:27:09.983Z,3.60
2022-11-25T11:29:36.756Z,3.42
2022-11-25T11:32:04.840Z,4.13
2022-11-25T11:34:40.392Z,3.40
2022-11-25T11:37:25.598Z,3.40
2022-11-25T11:40:00.248Z,3.88
2022-11-25T11:42:41.749Z,3.25
2022-11-25T11:45:22.698Z,3.30
2022-11-25T11:47:58.423Z,3.17
2022-11-25T11:50:43.666Z,3.38
2022-11-25T11:53:14.688Z,3.45
2022-11-25T11:58:10.539Z,3.08
2022-11-25T12:00:43.880Z,4.20
2022-11-25T12:03:16.175Z,3.13
2022-11-25T12:05:42.677Z,2.60
2022-11-25T12:08:09.016Z,3.58
2022-11-25T12:10:40.718Z,3.05
2022-11-25T12:13:10.025Z,3.35
2022-11-25T12:15:43.288Z,3.08
2022-11-25T12:18:15.259Z,2.97
2022-11-25T12:20:47.690Z,3.85
2022-11-25T12:23:17.116Z,3.17
2022-11-25T12:25:47.865Z,3.92
2022-11-25T12:28:14.341Z,3.22
2022-11-25T12:31:04.588Z,3.80
2022-11-25T12:33:41.730Z,3.38
2022-11-25T12:36:10.459Z,2.90
2022-11-25T12:38:46.287Z,3.63
2022-11-25T12:41:27.282Z,3.25
2022-11-25T12:44:12.113Z,3.38
2022-11-25T12:46:44.837Z,3.20
2022-11-25T12:49:17.002Z,2.78
2022-11-25T12:51:54.386Z,3.25
2022-11-25T12:54:20.767Z,3.20
2022-11-25T12:56:56.006Z,2.70
2022-11-25T12:59:22.316Z,3.20
2022-11-25T13:02:05.989Z,3.13
2022-11-25T13:04:40.868Z,3.78
2022-11-25T13:07:23.539Z,2.72
2022-11-25T13:09:58.973Z,3.05
2022-11-25T13:12:28.813Z,2.97
2022-11-25T13:15:14.467Z,2.67
2022-11-25T13:17:42.676Z,2.83
2022-11-25T13:20:27.240Z,3.20
2022-11-25T13:23:02.927Z,2.50
2022-11-25T13:25:32.490Z,3.38
2022-11-25T13:27:59.936Z,3.15
2022-11-25T13:30:32.314Z,3.00
2022-11-25T13:33:18.959Z,2.88
2022-11-25T13:35:50.366Z,2.67
2022-11-25T13:38:36.775Z,2.80
2022-11-25T13:41:12.178Z,2.75
2022-11-25T13:43:51.818Z,3.05
2022-11-25T13:46:47.857Z,3.28
2022-11-25T13:49:49.403Z,3.30
2022-11-25T13:52:15.950Z,3.28
2022-11-25T13:54:48.179Z,2.83
2022-11-25T13:57:18.745Z,2.45
2022-11-25T14:00:01.848Z,3.70
2022-11-25T14:02:44.688Z,3.92
2022-11-25T14:05:11.165Z,3.00
2022-11-25T14:07:49.313Z,3.17
2022-11-25T14:10:27.954Z,2.97
2022-11-25T14:13:06.647Z,2.72
2022-11-25T14:15:47.344Z,2.50
2022-11-25T14:18:27.579Z,2.95
2022-11-25T14:21:06.473Z,2.80
2022-11-25T14:23:51.668Z,2.63
2022-11-25T14:26:48.333Z,3.13
2022-11-25T14:29:15.372Z,2.90
2022-11-25T14:31:44.816Z,3.63
2022-11-25T14:34:17.454Z,3.80
2022-11-25T14:36:47.260Z,2.63
2022-11-25T14:39:16.984Z,2.60
2022-11-25T14:41:52.761Z,2.40
2022-11-25T14:44:22.723Z,2.50
2022-11-25T14:46:53.433Z,2.92
2022-11-25T14:49:44.075Z,3.03
2022-11-25T14:52:06.438Z,3.08
2022-11-25T14:54:32.860Z,3.85
2022-11-25T14:56:59.644Z,2.90
2022-11-25T14:59:26.280Z,3.00
2022-11-25T15:01:54.606Z,2.60
2022-11-25T15:04:25.453Z,2.90
2022-11-25T15:06:53.919Z,2.95
2022-11-25T15:09:21.954Z,3.05
2022-11-25T15:11:51.007Z,3.72
2022-11-25T15:14:25.563Z,3.58
2022-11-25T15:16:52.333Z,2.85
2022-11-25T15:19:20.133Z,3.30
2022-11-25T15:22:21.436Z,3.70
2022-11-25T15:24:40.018Z,3.20
2022-11-25T15:27:16.105Z,2.72
2022-11-25T15:29:43.562Z,4.38
2022-11-25T15:32:15.973Z,2.72
2022-11-25T15:34:43.305Z,2.95
2022-11-25T15:37:10.777Z,3.15
2022-11-25T15:39:37.327Z,2.80
2022-11-25T15:42:07.389Z,3.25
2022-11-25T15:44:35.171Z,3.00
2022-11-25T15:47:06.577Z,3.65
2022-11-25T15:49:33.639Z,2.90
2022-11-25T15:52:15.138Z,3.03
2022-11-25T15:54:46.608Z,2.30
2022-11-25T15:57:17.742Z,2.58
2022-11-25T16:02:30.486Z,4.30
2022-11-25T16:05:12.250Z,3.03
2022-11-25T16:07:51.132Z,2.65
2022-11-25T16:10:18.527Z,2.63
2022-11-25T16:12:44.857Z,3.28
2022-11-25T16:15:17.950Z,4.03
2022-11-25T16:17:44.460Z,3.65
2022-11-25T16:20:17.969Z,3.35
2022-11-25T16:22:44.737Z,4.07
2022-11-25T16:25:11.815Z,3.10
2022-11-25T16:27:38.559Z,3.17
2022-11-25T16:30:18.574Z,2.67
2022-11-25T16:32:44.971Z,3.08
2022-11-25T16:35:16.411Z,3.70
2022-11-25T16:37:48.488Z,3.05
2022-11-25T16:40:16.267Z,3.42
2022-11-25T16:42:46.238Z,3.30
2022-11-25T16:45:18.160Z,3.78
2022-11-25T16:47:44.625Z,2.65
2022-11-25T16:50:14.431Z,3.30
2022-11-25T16:52:40.820Z,2.85
2022-11-25T16:55:07.279Z,3.03
2022-11-25T16:57:34.249Z,3.05
2022-11-25T17:00:08.358Z,4.60
2022-11-25T17:02:35.523Z,3.30
2022-11-25T17:05:19.265Z,2.30
2022-11-25T17:07:45.868Z,2.28
2022-11-25T17:10:12.368Z,2.00
2022-11-25T17:12:40.722Z,2.10
2022-11-25T17:15:08.347Z,2.33
2022-11-25T17:17:34.939Z,1.80
2022-11-25T17:20:01.346Z,2.28
2022-11-25T17:22:27.899Z,2.20
2022-11-25T17:24:54.299Z,2.08
2022-11-25T17:27:31.094Z,1.98
2022-11-25T17:29:58.741Z,2.25
2022-11-25T17:32:25.731Z,1.73
2022-11-25T17:34:52.068Z,2.45
2022-11-25T17:37:19.733Z,2.65
2022-11-25T17:39:46.362Z,2.15
2022-11-25T17:42:18.403Z,1.50
2022-11-25T17:44:49.875Z,1.75
2022-11-25T17:47:19.634Z,1.60
2022-11-25T17:49:46.025Z,1.58
2022-11-25T17:52:12.390Z,2.15
2022-11-25T17:54:39.274Z,2.05
2022-11-25T17:57:07.672Z,1.70
2022-11-25T17:59:35.200Z,1.73
2022-11-25T18:02:02.739Z,1.60
2022-11-25T18:04:34.600Z,1.70
2022-11-25T18:07:01.223Z,1.38
2022-11-25T18:09:27.674Z,1.70
2022-11-25T18:11:54.898Z,2.05
2022-11-25T18:14:23.949Z,1.88
2022-11-25T18:16:50.408Z,2.00
2022-11-25T18:19:17.054Z,2.30
2022-11-25T18:21:43.364Z,2.58
2022-11-25T18:24:09.701Z,2.95
2022-11-25T18:26:41.541Z,2.25
2022-11-25T18:29:13.093Z,2.80
2022-11-25T18:31:39.733Z,3.10
2022-11-25T18:34:12.336Z,2.28
2022-11-25T18:36:38.624Z,1.88
2022-11-25T18:39:04.912Z,3.55
2022-11-25T18:41:31.266Z,2.60
2022-11-25T18:43:59.293Z,1.80
2022-11-25T18:46:25.694Z,2.03
2022-11-25T18:48:54.514Z,2.47
2022-11-25T18:51:20.937Z,2.63
2022-11-25T18:53:47.292Z,2.70
2022-11-25T18:56:17.696Z,2.60
2022-11-25T18:58:48.798Z,4.15
2022-11-25T19:01:15.930Z,3.75
2022-11-25T19:03:42.601Z,3.65
2022-11-25T19:06:14.503Z,3.38
2022-11-25T19:08:41.540Z,3.88
2022-11-25T19:11:16.391Z,5.30
2022-11-25T19:13:47.797Z,4.57
2022-11-25T19:16:16.471Z,4.47
2022-11-25T19:18:43.922Z,5.50
2022-11-25T19:21:14.609Z,4.43
2022-11-25T19:23:41.981Z,4.38
2022-11-25T19:26:13.213Z,6.50
2022-11-25T19:31:06.045Z,7.60
2022-11-25T19:33:36.821Z,7.35
2022-11-25T19:36:03.768Z,7.38
2022-11-25T19:38:31.010Z,8.05
2022-11-25T19:40:57.761Z,8.90
2022-11-25T19:43:26.974Z,6.55
2022-11-25T19:45:57.206Z,7.68
2022-11-25T19:48:29.458Z,7.90
2022-11-25T19:51:04.637Z,5.57
2022-11-25T19:53:34.184Z,6.68
2022-11-25T19:56:04.738Z,6.32
2022-11-25T19:58:32.801Z,6.22
2022-11-25T20:01:02.261Z,5.53
2022-11-25T20:03:29.974Z,6.95
2022-11-25T20:05:56.445Z,6.75
2022-11-25T20:08:24.547Z,7.63
2022-11-25T20:10:51.433Z,8.20
2022-11-25T20:13:17.793Z,7.97
2022-11-25T20:15:44.661Z,7.53
2022-11-25T20:18:18.645Z,6.60
2022-11-25T20:20:45.793Z,5.88
2022-11-25T20:23:14.217Z,6.95
2022-11-25T20:25:42.703Z,6.70
2022-11-25T20:28:14.185Z,6.45
2022-11-25T20:30:40.504Z,6.03
2022-11-25T20:33:06.845Z,6.10
2022-11-25T20:35:33.305Z,6.22
2022-11-25T20:38:00.929Z,11.93
2022-11-25T20:40:33.318Z,6.03
2022-11-25T20:42:59.738Z,7.82
2022-11-25T20:45:26.139Z,6.15
2022-11-25T20:47:52.859Z,6.80
2022-11-25T20:50:19.851Z,6.28
2022-11-25T20:52:50.335Z,6.93
2022-11-25T20:55:23.448Z,5.15
2022-11-25T20:57:51.741Z,5.70
2022-11-25T21:00:20.159Z,5.75
2022-11-25T21:02:46.579Z,9.10
2022-11-25T21:05:13.575Z,10.75
2022-11-25T21:07:40.089Z,7.10
2022-11-25T21:10:18.692Z,6.78
2022-11-25T21:12:45.094Z,4.90
2022-11-25T21:15:15.935Z,4.45
2022-11-25T21:17:42.277Z,4.65
2022-11-25T21:20:08.931Z,4.85
2022-11-25T21:22:40.915Z,4.95
2022-11-25T21:25:10.758Z,4.47
2022-11-25T21:27:37.308Z,4.05
2022-11-25T21:30:04.156Z,4.00
2022-11-25T21:32:30.605Z,4.55
2022-11-25T21:34:57.703Z,5.53
2022-11-25T21:37:29.849Z,5.35
2022-11-25T21:39:57.525Z,5.68
2022-11-25T21:42:24.433Z,5.80
2022-11-25T21:44:51.135Z,5.63
2022-11-25T21:47:22.587Z,5.15
2022-11-25T21:49:50.480Z,5.68
2022-11-25T21:52:17.008Z,5.05
2022-11-25T21:54:43.685Z,5.05
2022-11-25T21:57:16.733Z,6.03
2022-11-25T21:59:44.485Z,6.90
2022-11-25T22:02:16.352Z,9.63
2022-11-25T22:04:42.774Z,7.40
2022-11-25T22:07:09.769Z,6.00
2022-11-25T22:09:36.207Z,5.72
2022-11-25T22:12:02.751Z,10.50
2022-11-25T22:14:34.470Z,5.45
2022-11-25T22:17:01.561Z,6.07
2022-11-25T22:19:28.322Z,7.03
2022-11-25T22:21:55.078Z,6.53
2022-11-25T22:24:21.921Z,8.95
2022-11-25T22:26:52.345Z,6.28
2022-11-25T22:29:24.645Z,5.25
2022-11-25T22:31:51.146Z,7.10
2022-11-25T22:34:24.574Z,4.93
2022-11-25T22:36:51.365Z,5.32
2022-11-25T22:39:17.728Z,5.38
2022-11-25T22:41:45.786Z,4.72
2022-11-25T22:44:16.436Z,4.75
2022-11-25T22:46:42.894Z,4.72
2022-11-25T22:49:19.538Z,4.38
2022-11-25T22:51:46.101Z,4.03
2022-11-25T22:54:12.497Z,4.85
2022-11-25T22:56:38.846Z,3.97
2022-11-25T22:59:05.242Z,4.15
2022-11-25T23:01:31.632Z,5.20
2022-11-25T23:03:58.013Z,5.13
2022-11-25T23:06:25.852Z,5.07
2022-11-25T23:08:52.248Z,4.32
2022-11-25T23:11:19.955Z,4.07
2022-11-25T23:13:48.632Z,4.00
2022-11-25T23:16:15.149Z,3.60
2022-11-25T23:18:43.145Z,3.67
2022-11-25T23:21:15.724Z,4.13
2022-11-25T23:23:42.117Z,4.18
2022-11-25T23:26:12.589Z,4.18
2022-11-25T23:28:39.384Z,4.00
2022-11-25T23:31:05.924Z,4.32
2022-11-25T23:33:39.565Z,4.38
2022-11-25T23:36:26.242Z,4.30
2022-11-25T23:38:56.685Z,3.88
2022-11-25T23:41:24.684Z,4.47
2022-11-25T23:43:51.100Z,4.40
2022-11-25T23:46:18.683Z,4.32
2022-11-25T23:48:47.993Z,4.85
2022-11-25T23:51:14.305Z,4.75
2022-11-25T23:53:41.101Z,4.97
2022-11-25T23:56:07.548Z,4.68
2022-11-25T23:58:33.915Z,4.15
